createdAt,value
2022-11-02T00:00:52.739Z,100685.47
2022-11-02T00:03:29.360Z,100683.63
2022-11-02T00:06:07.309Z,100680.66
2022-11-02T00:08:46.505Z,100687.03
2022-11-02T00:11:16.736Z,100679.78
2022-11-02T00:13:52.674Z,100686.50
2022-11-02T00:16:26.910Z,100690.78
2022-11-02T00:19:04.492Z,100690.50
2022-11-02T00:21:38.954Z,100690.78
2022-11-02T00:24:12.657Z,100688.00
2022-11-02T00:26:42.886Z,100686.41
2022-11-02T00:29:26.191Z,100678.06
2022-11-02T00:32:00.690Z,100679.69
2022-11-02T00:34:44.095Z,100684.22
2022-11-02T00:37:16.136Z,100688.81
2022-11-02T00:39:51.003Z,100699.00
2022-11-02T00:42:25.258Z,100696.22
2022-11-02T00:45:24.930Z,100696.34
2022-11-02T00:47:55.775Z,100685.84
2022-11-02T00:50:33.575Z,100686.50
2022-11-02T00:53:07.598Z,100681.47
2022-11-02T00:55:55.026Z,100671.47
2022-11-02T00:58:31.994Z,100682.56
2022-11-02T01:01:11.861Z,100688.81
2022-11-02T01:03:49.052Z,100687.72
2022-11-02T01:06:31.414Z,100687.09
2022-11-02T01:09:03.077Z,100696.16
2022-11-02T01:11:37.196Z,100701.94
2022-11-02T01:14:11.909Z,100696.00
2022-11-02T01:16:49.907Z,100693.22
2022-11-02T01:19:30.216Z,100689.47
2022-11-02T01:22:02.599Z,100688.16
2022-11-02T01:24:40.357Z,100678.28
2022-11-02T01:27:11.750Z,100680.72
2022-11-02T01:29:43.776Z,100675.69
2022-11-02T01:32:16.985Z,100673.53
2022-11-02T01:34:51.432Z,100666.19
2022-11-02T01:37:32.504Z,100678.09
2022-11-02T01:40:03.046Z,100667.31
2022-11-02T01:42:43.463Z,100673.81
2022-11-02T01:45:27.491Z,100676.63
2022-11-02T01:48:01.382Z,100673.81
2022-11-02T01:50:34.843Z,100674.84
2022-11-02T01:53:10.188Z,100677.31
2022-11-02T01:55:41.763Z,100672.97
2022-11-02T01:58:22.175Z,100684.75
2022-11-02T02:00:55.374Z,100673.12
2022-11-02T02:03:43.966Z,100668.56
2022-11-02T02:06:18.508Z,100665.44
2022-11-02T02:09:00.482Z,100665.44
2022-11-02T02:11:34.926Z,100670.03
2022-11-02T02:14:13.231Z,100665.69
2022-11-02T02:17:03.841Z,100669.72
2022-11-02T02:20:13.776Z,100668.47
2022-11-02T02:23:08.389Z,100662.44
2022-11-02T02:25:50.673Z,100676.91
2022-11-02T02:28:53.167Z,100672.31
2022-11-02T02:31:45.743Z,100671.75
2022-11-02T02:34:24.783Z,100668.41
2022-11-02T02:37:00.669Z,100673.19
2022-11-02T02:39:47.564Z,100686.22
2022-11-02T02:42:29.285Z,100689.50
2022-11-02T02:45:35.311Z,100686.09
2022-11-02T02:48:21.520Z,100695.50
2022-11-02T02:51:00.918Z,100707.16
2022-11-02T02:53:38.248Z,100698.44
2022-11-02T02:56:15.928Z,100703.06
2022-11-02T02:59:13.458Z,100715.88
2022-11-02T03:01:48.868Z,100703.34
2022-11-02T03:04:21.854Z,100709.94
2022-11-02T03:07:01.535Z,100710.38
2022-11-02T03:09:40.502Z,100719.47
2022-11-02T03:12:36.992Z,100719.53
2022-11-02T03:15:16.977Z,100721.37
2022-11-02T03:18:05.095Z,100720.50
2022-11-02T03:20:55.455Z,100725.78
2022-11-02T03:23:32.720Z,100721.37
2022-11-02T03:26:18.026Z,100728.50
2022-11-02T03:29:10.282Z,100731.69
2022-11-02T03:32:03.839Z,100734.72
2022-11-02T03:34:46.180Z,100736.50
2022-11-02T03:37:52.547Z,100736.75
2022-11-02T03:40:32.111Z,100737.31
2022-11-02T03:43:07.420Z,100731.59
2022-11-02T03:45:49.759Z,100728.84
2022-11-02T03:48:26.268Z,100730.62
2022-11-02T03:51:07.415Z,100718.16
2022-11-02T03:54:02.518Z,100720.16
2022-11-02T03:56:47.074Z,100728.13
2022-11-02T03:59:26.678Z,100733.88
2022-11-02T04:02:14.089Z,100726.78
2022-11-02T04:04:57.046Z,100736.94
2022-11-02T04:07:58.363Z,100737.59
2022-11-02T04:10:35.322Z,100744.47
2022-11-02T04:13:37.535Z,100746.75
2022-11-02T04:16:15.967Z,100743.28
2022-11-02T04:19:06.592Z,100749.56
2022-11-02T04:22:01.717Z,100761.41
2022-11-02T04:24:57.783Z,100766.78
2022-11-02T04:27:39.944Z,100762.16
2022-11-02T04:30:21.795Z,100760.97
2022-11-02T04:33:14.003Z,100766.00
2022-11-02T04:35:56.265Z,100769.31
2022-11-02T04:38:45.483Z,100763.22
2022-11-02T04:41:42.291Z,100762.16
2022-11-02T04:44:26.219Z,100770.41
2022-11-02T04:47:05.203Z,100765.81
2022-11-02T04:49:58.804Z,100771.97
2022-11-02T04:52:39.750Z,100771.88
2022-11-02T04:55:16.832Z,100771.34
2022-11-02T04:57:51.748Z,100767.84
2022-11-02T05:00:27.736Z,100766.22
2022-11-02T05:03:08.110Z,100768.28
2022-11-02T05:06:00.577Z,100765.34
2022-11-02T05:08:44.567Z,100767.12
2022-11-02T05:11:28.521Z,100771.78
2022-11-02T05:14:06.452Z,100764.25
2022-11-02T05:16:43.520Z,100773.00
2022-11-02T05:19:16.748Z,100776.22
2022-11-02T05:22:07.947Z,100774.25
2022-11-02T05:24:44.456Z,100780.31
2022-11-02T05:27:21.973Z,100774.81
2022-11-02T05:30:06.297Z,100768.84
2022-11-02T05:32:46.258Z,100777.72
2022-11-02T05:35:24.403Z,100782.44
2022-11-02T05:38:11.839Z,100775.81
2022-11-02T05:41:01.408Z,100775.75
2022-11-02T05:43:49.235Z,100770.78
2022-11-02T05:46:34.063Z,100768.03
2022-11-02T05:49:27.454Z,100766.28
2022-11-02T05:52:05.484Z,100770.00
2022-11-02T05:54:33.866Z,100765.00
2022-11-02T05:57:02.145Z,100767.62
2022-11-02T05:59:31.614Z,100758.69
2022-11-02T06:01:59.259Z,100775.59
2022-11-02T06:04:27.478Z,100768.87
2022-11-02T06:06:58.963Z,100781.22
2022-11-02T06:09:27.835Z,100777.28
2022-11-02T06:11:56.399Z,100776.66
2022-11-02T06:14:26.207Z,100776.03
2022-11-02T06:16:54.708Z,100774.75
2022-11-02T06:19:23.277Z,100769.19
2022-11-02T06:21:51.686Z,100774.22
2022-11-02T06:24:19.876Z,100779.00
2022-11-02T06:26:49.071Z,100785.69
2022-11-02T06:29:16.921Z,100790.38
2022-11-02T06:31:46.458Z,100807.53
2022-11-02T06:34:14.320Z,100805.25
2022-11-02T06:36:42.691Z,100805.66
2022-11-02T06:39:11.568Z,100808.66
2022-11-02T06:41:39.946Z,100816.53
2022-11-02T06:44:08.028Z,100820.81
2022-11-02T06:46:36.467Z,100822.66
2022-11-02T06:49:04.420Z,100830.47
2022-11-02T06:51:32.225Z,100829.19
2022-11-02T06:54:05.982Z,100832.91
2022-11-02T06:56:36.441Z,100824.50
2022-11-02T06:59:04.501Z,100829.19
2022-11-02T07:01:35.831Z,100814.81
2022-11-02T07:04:04.296Z,100815.22
2022-11-02T07:06:34.388Z,100810.63
2022-11-02T07:09:07.012Z,100813.97
2022-11-02T07:11:35.755Z,100817.81
2022-11-02T07:14:03.662Z,100821.59
2022-11-02T07:16:31.855Z,100816.22
2022-11-02T07:19:00.296Z,100820.03
2022-11-02T07:21:28.048Z,100811.53
2022-11-02T07:23:55.554Z,100808.03
2022-11-02T07:26:24.861Z,100814.69
2022-11-02T07:28:55.274Z,100810.75
2022-11-02T07:31:27.584Z,100814.62
2022-11-02T07:33:55.654Z,100814.50
2022-11-02T07:36:23.552Z,100823.53
2022-11-02T07:38:52.002Z,100821.47
2022-11-02T07:41:19.787Z,100825.78
2022-11-02T07:43:48.388Z,100836.69
2022-11-02T07:46:17.706Z,100829.38
2022-11-02T07:48:47.072Z,100827.47
2022-11-02T07:51:14.717Z,100828.94
2022-11-02T07:53:42.931Z,100827.09
2022-11-02T07:56:11.684Z,100815.75
2022-11-02T07:58:40.002Z,100816.53
2022-11-02T08:01:08.554Z,100807.94
2022-11-02T08:03:36.936Z,100809.00
2022-11-02T08:06:05.273Z,100809.25
2022-11-02T08:08:33.130Z,100811.62
2022-11-02T08:11:09.846Z,100810.53
2022-11-02T08:13:39.709Z,100819.00
2022-11-02T08:16:10.154Z,100816.16
2022-11-02T08:18:38.064Z,100817.16
2022-11-02T08:21:05.953Z,100807.81
2022-11-02T08:23:33.923Z,100814.91
2022-11-02T08:26:01.887Z,100812.25
2022-11-02T08:28:32.404Z,100815.53
2022-11-02T08:31:00.830Z,100814.16
2022-11-02T08:33:28.796Z,100813.00
2022-11-02T08:36:02.451Z,100815.16
2022-11-02T08:38:31.749Z,100819.94
2022-11-02T08:40:59.819Z,100818.72
2022-11-02T08:43:27.764Z,100817.34
2022-11-02T08:46:14.324Z,100824.34
2022-11-02T08:48:44.742Z,100815.03
2022-11-02T08:51:13.373Z,100809.97
2022-11-02T08:53:42.366Z,100807.34
2022-11-02T08:56:12.896Z,100803.56
2022-11-02T08:58:41.051Z,100808.09
2022-11-02T09:01:08.972Z,100798.47
2022-11-02T09:03:37.468Z,100799.97
2022-11-02T09:06:05.823Z,100805.78
2022-11-02T09:08:33.668Z,100803.47
2022-11-02T09:11:04.365Z,100797.56
2022-11-02T09:13:34.262Z,100784.16
2022-11-02T09:16:05.138Z,100789.44
2022-11-02T09:18:33.963Z,100797.81
2022-11-02T09:21:05.644Z,100800.19
2022-11-02T09:23:34.044Z,100800.53
2022-11-02T09:26:04.154Z,100802.69
2022-11-02T09:28:33.690Z,100794.44
2022-11-02T09:31:03.824Z,100795.06
2022-11-02T09:33:36.782Z,100793.37
2022-11-02T09:36:06.707Z,100794.69
2022-11-02T09:38:34.815Z,100797.62
2022-11-02T09:41:21.664Z,100791.56
2022-11-02T09:44:08.867Z,100800.66
2022-11-02T09:46:42.827Z,100790.28
2022-11-02T09:49:20.269Z,100793.88
2022-11-02T09:51:57.380Z,100787.41
2022-11-02T09:54:48.844Z,100783.78
2022-11-02T09:57:30.014Z,100783.22
2022-11-02T09:59:58.454Z,100788.41
2022-11-02T10:02:33.630Z,100789.59
2022-11-02T10:05:26.114Z,100787.19
2022-11-02T10:08:14.387Z,100787.25
2022-11-02T10:10:53.291Z,100790.75
2022-11-02T10:13:37.725Z,100786.31
2022-11-02T10:16:08.084Z,100781.50
2022-11-02T10:18:37.209Z,100784.00
2022-11-02T10:21:08.473Z,100784.00
2022-11-02T10:24:03.967Z,100777.50
2022-11-02T10:26:37.589Z,100777.00
2022-11-02T10:29:18.673Z,100768.72
2022-11-02T10:31:48.685Z,100772.56
2022-11-02T10:34:23.994Z,100764.44
2022-11-02T10:37:01.185Z,100760.47
2022-11-02T10:39:31.516Z,100763.66
2022-11-02T10:42:26.919Z,100762.31
2022-11-02T10:45:41.236Z,100761.66
2022-11-02T10:48:23.302Z,100765.97
2022-11-02T10:50:59.903Z,100763.34
2022-11-02T10:53:41.143Z,100763.13
2022-11-02T10:56:19.435Z,100762.16
2022-11-02T10:59:00.019Z,100759.25
2022-11-02T11:01:30.256Z,100764.88
2022-11-02T11:04:02.018Z,100769.94
2022-11-02T11:06:41.619Z,100761.63
2022-11-02T11:09:20.249Z,100759.41
2022-11-02T11:12:06.180Z,100771.09
2022-11-02T11:20:40.291Z,100769.22
2022-11-02T11:23:22.433Z,100768.13
2022-11-02T11:26:05.409Z,100765.50
2022-11-02T11:28:52.970Z,100770.72
2022-11-02T11:31:21.628Z,100771.66
2022-11-02T11:33:54.686Z,100773.72
2022-11-02T11:36:31.158Z,100775.34
2022-11-02T11:39:02.526Z,100779.03
2022-11-02T11:41:31.113Z,100777.09
2022-11-02T11:44:01.372Z,100776.28
2022-11-02T11:46:40.905Z,100777.69
2022-11-02T11:50:07.253Z,100777.53
2022-11-02T11:52:25.583Z,100779.50
2022-11-02T11:55:16.245Z,100769.25
2022-11-02T11:57:44.326Z,100773.63
2022-11-02T12:00:28.262Z,100767.00
2022-11-02T12:03:08.566Z,100769.56
2022-11-02T12:05:57.567Z,100751.78
2022-11-02T12:08:32.151Z,100743.75
2022-11-02T12:11:31.752Z,100736.06
2022-11-02T12:14:15.408Z,100739.72
2022-11-02T12:16:56.623Z,100727.84
2022-11-02T12:19:54.612Z,100723.69
2022-11-02T12:22:44.997Z,100719.31
2022-11-02T12:25:26.155Z,100723.56
2022-11-02T12:28:14.446Z,100719.53
2022-11-02T12:31:20.230Z,100707.41
2022-11-02T12:34:30.521Z,100714.59
2022-11-02T12:37:38.697Z,100705.59
2022-11-02T12:40:14.688Z,100702.78
2022-11-02T12:43:15.758Z,100705.13
2022-11-02T12:45:58.364Z,100705.31
2022-11-02T12:49:05.841Z,100708.75
2022-11-02T12:51:39.821Z,100706.38
2022-11-02T12:54:12.747Z,100705.91
2022-11-02T12:56:49.808Z,100697.34
2022-11-02T12:59:28.112Z,100694.91
2022-11-02T13:01:59.642Z,100698.09
2022-11-02T13:04:36.857Z,100692.72
2022-11-02T13:07:15.832Z,100684.06
2022-11-02T13:09:54.430Z,100690.75
2022-11-02T13:12:23.958Z,100688.94
2022-11-02T13:14:55.163Z,100685.59
2022-11-02T13:17:27.712Z,100687.31
2022-11-02T13:20:01.506Z,100684.22
2022-11-02T13:22:36.037Z,100683.00
2022-11-02T13:25:15.369Z,100691.81
2022-11-02T13:27:49.351Z,100683.81
2022-11-02T13:30:18.735Z,100686.88
2022-11-02T13:33:15.086Z,100688.25
2022-11-02T13:35:43.534Z,100693.34
2022-11-02T13:38:44.860Z,100688.59
2022-11-02T13:41:37.194Z,100695.75
2022-11-02T13:44:32.219Z,100692.88
2022-11-02T13:47:15.640Z,100693.25
2022-11-02T13:49:45.613Z,100707.63
2022-11-02T13:52:21.765Z,100706.38
2022-11-02T13:54:52.453Z,100696.72
2022-11-02T13:57:41.275Z,100696.66
2022-11-02T14:00:24.153Z,100696.81
2022-11-02T14:03:07.071Z,100703.56
2022-11-02T14:05:36.744Z,100704.66
2022-11-02T14:08:08.179Z,100705.78
2022-11-02T14:10:41.212Z,100710.44
2022-11-02T14:13:16.161Z,100715.63
2022-11-02T14:15:44.135Z,100714.38
2022-11-02T14:18:26.766Z,100708.25
2022-11-02T14:20:54.378Z,100714.19
2022-11-02T14:23:25.984Z,100708.88
2022-11-02T14:25:55.605Z,100707.47
2022-11-02T14:28:23.870Z,100715.19
2022-11-02T14:31:02.210Z,100705.19
2022-11-02T14:34:17.568Z,100705.69
2022-11-02T14:36:51.625Z,100709.00
2022-11-02T14:39:49.496Z,100711.37
2022-11-02T14:42:20.664Z,100709.13
2022-11-02T14:45:07.556Z,100724.03
2022-11-02T14:47:37.491Z,100717.44
2022-11-02T14:50:16.680Z,100721.97
2022-11-02T14:53:00.218Z,100725.75
2022-11-02T14:55:34.073Z,100731.06
2022-11-02T14:58:10.866Z,100720.09
2022-11-02T15:00:56.734Z,100723.53
2022-11-02T15:03:28.783Z,100733.56
2022-11-02T15:06:07.766Z,100735.91
2022-11-02T15:08:48.387Z,100729.56
2022-11-02T15:11:47.790Z,100731.97
2022-11-02T15:14:35.481Z,100734.72
2022-11-02T15:17:10.476Z,100729.47
2022-11-02T15:19:47.358Z,100726.78
2022-11-02T15:22:46.812Z,100734.53
2022-11-02T15:25:41.853Z,100733.81
2022-11-02T15:28:20.078Z,100735.91
2022-11-02T15:30:53.847Z,100737.41
2022-11-02T15:33:34.969Z,100744.28
2022-11-02T15:36:04.999Z,100748.25
2022-11-02T15:38:40.343Z,100744.19
2022-11-02T15:41:33.553Z,100751.63
2022-11-02T15:44:15.534Z,100751.44
2022-11-02T15:46:59.134Z,100759.50
2022-11-02T15:49:34.924Z,100755.06
2022-11-02T15:52:29.211Z,100753.50
2022-11-02T15:55:21.220Z,100757.28
2022-11-02T15:58:02.390Z,100751.03
2022-11-02T16:00:31.667Z,100750.09
2022-11-02T16:03:07.369Z,100751.31
2022-11-02T16:05:38.197Z,100748.50
2022-11-02T16:08:25.539Z,100752.66
2022-11-02T16:11:05.829Z,100746.97
2022-11-02T16:14:03.537Z,100750.53
2022-11-02T16:16:33.258Z,100757.62
2022-11-02T16:19:04.264Z,100757.59
2022-11-02T16:21:32.495Z,100754.88
2022-11-02T16:24:00.527Z,100760.44
2022-11-02T16:26:29.928Z,100761.75
2022-11-02T16:29:00.101Z,100769.78
2022-11-02T16:31:32.201Z,100771.16
2022-11-02T16:34:16.177Z,100773.75
2022-11-02T16:36:44.559Z,100782.91
2022-11-02T16:39:13.709Z,100781.97
2022-11-02T16:41:47.463Z,100783.84
2022-11-02T16:44:20.154Z,100779.87
2022-11-02T16:46:50.229Z,100782.44
2022-11-02T16:49:22.815Z,100792.00
2022-11-02T16:51:56.347Z,100790.69
2022-11-02T16:54:38.777Z,100802.31
2022-11-02T16:57:17.296Z,100794.50
2022-11-02T16:59:49.742Z,100800.34
2022-11-02T17:02:19.873Z,100797.66
2022-11-02T17:07:25.458Z,100799.19
2022-11-02T17:09:57.017Z,100802.63
2022-11-02T17:12:36.108Z,100805.12
2022-11-02T17:15:15.486Z,100801.97
2022-11-02T17:17:44.066Z,100809.41
2022-11-02T17:20:15.346Z,100818.31
2022-11-02T17:22:55.753Z,100807.03
2022-11-02T17:25:26.844Z,100811.31
2022-11-02T17:27:57.862Z,100810.50
2022-11-02T17:30:30.215Z,100814.78
2022-11-02T17:32:59.120Z,100819.16
2022-11-02T17:35:33.015Z,100825.38
2022-11-02T17:38:02.561Z,100814.53
2022-11-02T17:40:33.599Z,100817.84
2022-11-02T17:43:02.620Z,100814.47
2022-11-02T17:45:33.701Z,100826.87
2022-11-02T17:48:03.082Z,100822.81
2022-11-02T17:50:37.475Z,100816.87
2022-11-02T17:53:12.086Z,100824.63
2022-11-02T17:55:40.640Z,100820.00
2022-11-02T17:58:11.450Z,100822.12
2022-11-02T18:00:40.736Z,100823.28
2022-11-02T18:03:19.241Z,100813.00
2022-11-02T18:05:50.207Z,100813.37
2022-11-02T18:08:20.868Z,100811.13
2022-11-02T18:10:51.372Z,100818.09
2022-11-02T18:13:21.711Z,100814.25
2022-11-02T18:15:51.469Z,100826.44
2022-11-02T18:18:20.001Z,100822.25
2022-11-02T18:20:48.961Z,100816.47
2022-11-02T18:23:17.902Z,100821.34
2022-11-02T18:25:45.803Z,100820.31
2022-11-02T18:28:14.449Z,100819.66
2022-11-02T18:30:44.891Z,100820.84
2022-11-02T18:33:14.651Z,100823.97
2022-11-02T18:35:43.127Z,100815.09
2022-11-02T18:38:12.163Z,100824.88
2022-11-02T18:40:40.547Z,100817.94
2022-11-02T18:43:13.428Z,100821.72
2022-11-02T18:45:42.117Z,100821.13
2022-11-02T18:48:13.188Z,100827.59
2022-11-02T18:50:42.917Z,100822.97
2022-11-02T18:53:12.860Z,100817.25
2022-11-02T18:55:41.783Z,100819.31
2022-11-02T18:58:12.145Z,100823.75
2022-11-02T19:00:42.105Z,100819.97
2022-11-02T19:03:12.116Z,100826.87
2022-11-02T19:06:03.644Z,100832.31
2022-11-02T19:08:52.114Z,100825.62
2022-11-02T19:11:20.457Z,100828.41
2022-11-02T19:13:48.670Z,100837.50
2022-11-02T19:16:17.422Z,100840.44
2022-11-02T19:18:48.790Z,100840.78
2022-11-02T19:21:22.736Z,100844.66
2022-11-02T19:23:52.675Z,100846.50
2022-11-02T19:26:20.487Z,100842.78
2022-11-02T19:28:49.093Z,100846.75
2022-11-02T19:31:18.907Z,100847.19
2022-11-02T19:33:47.394Z,100840.66
2022-11-02T19:36:16.067Z,100830.56
2022-11-02T19:38:48.204Z,100837.72
2022-11-02T19:41:19.771Z,100838.38
2022-11-02T19:43:51.231Z,100844.47
2022-11-02T19:46:23.072Z,100846.34
2022-11-02T19:48:53.447Z,100839.03
2022-11-02T19:51:24.887Z,100843.16
2022-11-02T19:53:59.853Z,100849.19
2022-11-02T19:56:31.834Z,100848.72
2022-11-02T19:59:00.550Z,100846.56
2022-11-02T20:01:37.057Z,100841.63
2022-11-02T20:04:07.243Z,100840.31
2022-11-02T20:06:43.096Z,100844.47
2022-11-02T20:09:15.693Z,100847.19
2022-11-02T20:11:45.827Z,100845.81
2022-11-02T20:14:16.929Z,100848.28
2022-11-02T20:16:58.424Z,100844.00
2022-11-02T20:19:35.155Z,100850.09
2022-11-02T20:22:08.597Z,100851.50
2022-11-02T20:24:37.770Z,100850.25
2022-11-02T20:27:07.145Z,100855.53
2022-11-02T20:29:36.021Z,100852.44
2022-11-02T20:32:10.158Z,100850.69
2022-11-02T20:34:39.475Z,100851.72
2022-11-02T20:37:09.150Z,100848.44
2022-11-02T20:39:38.372Z,100853.38
2022-11-02T20:42:11.487Z,100852.06
2022-11-02T20:44:40.308Z,100851.41
2022-11-02T20:47:10.721Z,100847.31
2022-11-02T20:49:54.945Z,100849.97
2022-11-02T20:52:24.604Z,100856.16
2022-11-02T20:54:53.389Z,100856.91
2022-11-02T20:57:23.205Z,100857.94
2022-11-02T20:59:52.641Z,100857.00
2022-11-02T21:02:22.443Z,100849.28
2022-11-02T21:04:51.457Z,100853.81
2022-11-02T21:07:21.711Z,100849.09
2022-11-02T21:09:50.163Z,100846.66
2022-11-02T21:12:36.685Z,100844.91
2022-11-02T21:15:06.583Z,100848.38
2022-11-02T21:17:36.694Z,100852.72
2022-11-02T21:20:32.672Z,100852.84
2022-11-02T21:23:05.917Z,100856.75
2022-11-02T21:25:39.738Z,100856.97
2022-11-02T21:28:09.553Z,100860.16
2022-11-02T21:30:41.107Z,100856.69
2022-11-02T21:33:12.254Z,100859.00
2022-11-02T21:35:43.695Z,100862.03
2022-11-02T21:38:13.630Z,100860.47
2022-11-02T21:40:45.287Z,100862.41
2022-11-02T21:43:13.421Z,100866.44
2022-11-02T21:45:51.712Z,100856.81
2022-11-02T21:48:21.779Z,100861.69
2022-11-02T21:51:01.044Z,100855.59
2022-11-02T21:53:31.380Z,100861.03
2022-11-02T21:56:06.257Z,100861.03
2022-11-02T21:58:34.797Z,100856.66
2022-11-02T22:01:29.102Z,100860.78
2022-11-02T22:03:57.848Z,100863.16
2022-11-02T22:06:30.997Z,100863.66
2022-11-02T22:09:01.390Z,100871.47
2022-11-02T22:11:29.455Z,100874.22
2022-11-02T22:14:19.817Z,100873.75
2022-11-02T22:16:51.016Z,100871.47
2022-11-02T22:19:19.765Z,100867.94
2022-11-02T22:21:50.242Z,100868.38
2022-11-02T22:24:17.831Z,100875.47
2022-11-02T22:26:46.175Z,100878.16
2022-11-02T22:29:16.781Z,100883.38
2022-11-02T22:31:45.234Z,100888.72
2022-11-02T22:34:17.942Z,100881.50
2022-11-02T22:36:52.419Z,100879.59
2022-11-02T22:39:25.878Z,100886.00
2022-11-02T22:41:56.146Z,100889.84
2022-11-02T22:44:27.295Z,100890.28
2022-11-02T22:46:57.883Z,100897.19
2022-11-02T22:49:30.582Z,100896.16
2022-11-02T22:52:02.537Z,100894.28
2022-11-02T22:54:35.051Z,100899.47
2022-11-02T22:57:05.835Z,100899.13
2022-11-02T22:59:39.622Z,100894.31
2022-11-02T23:02:09.326Z,100892.53
2022-11-02T23:04:40.458Z,100888.63
2022-11-02T23:07:11.821Z,100886.25
2022-11-02T23:09:46.048Z,100886.75
2022-11-02T23:12:21.481Z,100886.56
2022-11-02T23:14:53.958Z,100897.69
2022-11-02T23:17:28.222Z,100897.66
2022-11-02T23:20:01.070Z,100897.50
2022-11-02T23:22:33.512Z,100896.16
2022-11-02T23:25:15.307Z,100899.13
2022-11-02T23:28:17.627Z,100890.50
2022-11-02T23:31:07.533Z,100889.91
2022-11-02T23:33:38.638Z,100889.91
2022-11-02T23:36:13.913Z,100892.69
2022-11-02T23:39:06.483Z,100889.78
2022-11-02T23:41:45.618Z,100881.53
2022-11-02T23:44:15.849Z,100887.84
2022-11-02T23:46:49.579Z,100876.06
2022-11-02T23:49:23.140Z,100894.00
2022-11-02T23:52:13.475Z,100881.56
2022-11-02T23:55:02.649Z,100888.25
2022-11-02T23:57:35.891Z,100891.91
